Time;durP1;ratioP1;P1;durP2;ratioP2;P2;SDS_P1;SDS_P2;PMS_P1;PMS_P2;Temp;Humidity;BMP_temperature;BMP_pressure;BME280_temperature;BME280_humidity;BME280_pressure;Samples;Min_cycle;Max_cycle;Signal;HPM_P1;HPM_P2
2023/10/02 11:54:43;;;;;;;;;6.33;2.67;;;;;23.10;43.84;100452.25;6277446;20;3464947;-52
2023/10/02 11:57:13;;;;;;;;;4.50;3.50;;;;;22.33;45.56;100448.13;6361285;20;2749281;-47
2023/10/02 11:59:47;;;;;;;;;4.80;3.40;;;;;23.42;44.67;100451.69;6326869;20;2754586;-51
2023/10/02 12:02:18;;;;;;;;;3.20;3.20;;;;;23.73;44.04;100447.69;6325797;20;2752475;-46
2023/10/02 12:04:47;;;;;;;;;7.00;4.40;;;;;23.46;44.04;100449.50;6325525;20;2748191;-52
2023/10/02 12:07:17;;;;;;;;;5.00;4.40;;;;;23.79;43.25;100442.38;6316947;20;2745167;-51
2023/10/02 12:09:47;;;;;;;;;5.40;5.40;;;;;24.03;43.37;100449.03;6325757;20;2738922;-51
2023/10/02 12:12:17;;;;;;;;;5.40;3.00;;;;;23.59;43.39;100440.84;6326200;20;2743091;-50
2023/10/02 12:14:46;;;;;;;;;6.00;3.00;;;;;23.03;44.41;100442.09;6299122;20;2740981;-49
2023/10/02 12:17:15;;;;;;;;;2.80;2.80;;;;;23.75;44.78;100438.25;6354315;20;2756655;-51
2023/10/02 12:19:45;;;;;;;;;5.33;4.00;;;;;23.16;44.18;100439.81;6310085;20;2748296;-48
2023/10/02 12:22:15;;;;;;;;;4.20;3.80;;;;;23.09;44.29;100427.75;6354672;20;2741038;-50
2023/10/02 12:24:46;;;;;;;;;3.00;2.33;;;;;23.57;44.10;100426.44;6298137;20;2734026;-50
2023/10/02 12:27:17;;;;;;;;;6.20;4.80;;;;;23.72;44.25;100424.84;6356888;20;2750319;-49
2023/10/02 12:29:47;;;;;;;;;2.00;2.00;;;;;22.97;44.69;100428.00;6322701;20;2756657;-50
2023/10/02 12:32:18;;;;;;;;;5.00;4.00;;;;;23.37;44.86;100420.28;6301503;20;2749460;-50
2023/10/02 12:34:48;;;;;;;;;8.40;4.60;;;;;23.92;44.24;100421.91;6351537;20;2744034;-49
2023/10/02 12:37:18;;;;;;;;;3.60;3.60;;;;;23.78;43.67;100413.25;6323159;20;2752403;-48
2023/10/02 12:39:48;;;;;;;;;4.80;4.80;;;;;23.92;44.45;100417.28;6321334;20;2747247;-51
2023/10/02 12:42:16;;;;;;;;;5.00;5.00;;;;;23.95;44.25;100413.34;6298674;20;2728444;-50
2023/10/02 12:44:48;;;;;;;;;4.80;4.40;;;;;23.33;44.11;100411.53;6356007;20;2748191;-52
2023/10/02 12:47:17;;;;;;;;;4.33;4.00;;;;;23.19;45.72;100417.56;6300031;20;2745118;-48
2023/10/02 12:49:47;;;;;;;;;5.40;4.40;;;;;24.04;43.69;100405.00;6355068;20;2747181;-51
2023/10/02 12:52:17;;;;;;;;;4.60;3.80;;;;;23.25;45.50;100400.53;6323041;20;2748358;-51
2023/10/02 12:54:48;;;;;;;;;3.80;3.80;;;;;23.25;44.74;100400.53;6324532;20;2733659;-47
2023/10/02 12:57:17;;;;;;;;;6.80;4.60;;;;;24.06;45.06;100402.06;6322628;20;2750358;-50
2023/10/02 12:59:49;;;;;;;;;4.83;3.33;;;;;23.32;44.94;100395.25;6346742;20;1791227;-50
2023/10/02 13:02:18;;;;;;;;;5.00;3.00;;;;;23.37;45.28;100393.75;6353465;20;2741993;-49
2023/10/02 13:04:47;;;;;;;;;5.00;4.00;;;;;22.45;46.13;100383.97;6286048;20;2741990;-49
2023/10/02 13:07:15;;;;;;;;;5.67;5.00;;;;;23.14;46.77;100382.44;6300065;20;2736838;-51
2023/10/02 13:09:44;;;;;;;;;12.00;7.33;;;;;24.12;45.04;100386.84;6309245;20;2776161;-53
2023/10/02 13:12:13;;;;;;;;;5.00;4.67;;;;;22.84;45.65;100383.69;6306088;20;2748233;-48
2023/10/02 13:14:41;;;;;;;;;4.00;3.00;;;;;23.35;45.84;100387.56;6309378;20;2741952;-48
2023/10/02 13:17:11;;;;;;;;;5.80;4.40;;;;;23.70;44.63;100374.78;6330616;20;2741949;-46
2023/10/02 13:19:41;;;;;;;;;4.60;3.60;;;;;23.22;45.24;100374.31;6298938;20;2747248;-52
2023/10/02 13:22:10;;;;;;;;;5.60;4.60;;;;;23.51;45.98;100372.25;6300501;20;2748195;-51
2023/10/02 13:24:39;;;;;;;;;12.00;7.00;;;;;23.46;45.32;100380.97;6269559;20;2775484;-47
2023/10/02 13:27:09;;;;;;;;;7.40;5.20;;;;;23.31;45.80;100374.34;6326534;20;2737778;-50
2023/10/02 13:29:37;;;;;;;;;12.00;6.00;;;;;23.44;44.75;100372.91;6265246;20;2776383;-53
2023/10/02 13:32:07;;;;;;;;;2.20;2.20;;;;;23.63;44.83;100377.31;6333062;20;2756649;-50
2023/10/02 13:34:39;;;;;;;;;5.80;4.40;;;;;23.64;44.13;100368.06;6302264;20;2744121;-50
2023/10/02 13:37:11;;;;;;;;;4.20;4.00;;;;;23.02;45.62;100360.94;6331975;20;2743032;-51
2023/10/02 13:39:39;;;;;;;;;4.67;4.67;;;;;23.49;45.53;100374.31;6278127;20;2734693;-52
2023/10/02 13:42:09;;;;;;;;;5.00;3.80;;;;;23.50;45.80;100370.53;6331035;20;2748223;-53
2023/10/02 13:44:39;;;;;;;;;3.20;3.20;;;;;22.97;46.07;100364.16;6298653;20;2742987;-53
2023/10/02 13:47:09;;;;;;;;;4.80;4.80;;;;;23.15;45.94;100358.66;6298717;20;2747151;-52
2023/10/02 13:49:54;;;;;;;;;5.00;4.00;;;;;23.70;45.24;100357.44;6274195;20;2743101;-51
2023/10/02 13:52:25;;;;;;;;;4.00;4.00;;;;;23.39;45.39;100355.22;6331924;20;2748300;-53
2023/10/02 13:54:55;;;;;;;;;5.80;5.40;;;;;23.70;45.71;100357.44;6300790;20;2743235;-53
2023/10/02 13:57:23;;;;;;;;;3.33;3.33;;;;;22.91;46.74;100348.31;6307569;20;2745153;-52
2023/10/02 13:59:53;;;;;;;;;4.00;4.00;;;;;23.42;46.56;100349.41;6307807;20;2745069;-52
2023/10/02 14:02:22;;;;;;;;;5.40;3.80;;;;;23.83;45.25;100347.81;6328424;20;2743014;-49
2023/10/02 14:04:52;;;;;;;;;5.00;3.40;;;;;23.51;45.23;100348.44;6298932;20;2745092;-50
2023/10/02 14:07:21;;;;;;;;;3.00;3.00;;;;;23.86;45.30;100355.69;6272675;20;2747144;-52
2023/10/02 14:09:50;;;;;;;;;6.00;5.00;;;;;23.75;45.96;100342.28;6332086;20;2745061;-53
2023/10/02 14:12:20;;;;;;;;;3.60;3.60;;;;;23.43;46.46;100332.81;6300313;20;2732578;-53
2023/10/02 14:14:49;;;;;;;;;6.67;4.00;;;;;23.54;46.07;100333.53;6291184;20;2738874;-51
2023/10/02 14:17:19;;;;;;;;;6.20;4.00;;;;;23.55;45.03;100335.28;6325621;20;2749373;-51
2023/10/02 14:19:50;;;;;;;;;5.80;4.20;;;;;23.26;46.83;100330.97;6301431;20;2744034;-48
2023/10/02 14:22:25;;;;;;;;;8.00;5.00;;;;;23.59;45.97;100343.03;6300265;20;2752398;-52
2023/10/02 14:24:54;;;;;;;;;63.33;38.33;;;;;22.86;47.16;100335.09;6267158;20;1906616;-52
2023/10/02 14:27:23;;;;;;;;;12.33;5.67;;;;;23.03;46.55;100335.25;6300360;20;3508082;-50
2023/10/02 14:29:53;;;;;;;;;3.00;3.00;;;;;22.96;46.93;100335.00;6329548;20;2742991;-51
2023/10/02 14:32:23;;;;;;;;;4.40;4.00;;;;;22.47;47.28;100329.94;6299718;20;2737868;-47
2023/10/02 14:34:54;;;;;;;;;3.80;3.60;;;;;22.99;46.80;100330.09;6300304;20;2748222;-50
2023/10/02 14:37:23;;;;;;;;;7.40;4.60;;;;;23.04;46.48;100332.38;6296387;20;2750293;-49
2023/10/02 14:39:54;;;;;;;;;3.33;3.33;;;;;22.99;47.00;100332.84;6277091;20;2739959;-47
2023/10/02 14:42:24;;;;;;;;;3.40;3.40;;;;;22.90;46.66;100327.41;6331604;20;2746156;-48
2023/10/02 14:44:53;;;;;;;;;6.40;4.60;;;;;22.97;46.87;100326.66;6299373;20;2743157;-53
2023/10/02 14:47:23;;;;;;;;;4.40;4.00;;;;;23.05;46.65;100330.50;6298706;20;2747207;-52
2023/10/02 14:49:54;;;;;;;;;4.40;3.20;;;;;23.07;47.29;100331.19;6299394;20;2748230;-52
2023/10/02 14:52:24;;;;;;;;;3.40;3.40;;;;;22.81;47.14;100325.66;6300278;20;2738835;-48
2023/10/02 14:54:54;;;;;;;;;3.80;3.80;;;;;22.86;46.92;100326.88;6293789;20;2738993;-50
2023/10/02 14:57:23;;;;;;;;;5.60;5.60;;;;;22.75;47.32;100321.66;6326785;20;2740963;-52
2023/10/02 14:59:54;;;;;;;;;6.20;4.40;;;;;22.81;47.50;100322.91;6297467;20;2742992;-53
2023/10/02 15:02:24;;;;;;;;;3.20;3.20;;;;;22.65;47.36;100326.34;6295765;20;2748232;-50
2023/10/02 15:04:53;;;;;;;;;4.00;4.00;;;;;22.76;47.51;100317.91;6272916;20;2748209;-50
2023/10/02 15:07:22;;;;;;;;;5.80;5.00;;;;;22.56;47.99;100326.28;6328997;20;2745081;-53
2023/10/02 15:09:51;;;;;;;;;4.00;4.00;;;;;22.44;49.02;100323.94;6272825;20;2750495;-50
2023/10/02 15:12:21;;;;;;;;;2.20;2.00;;;;;22.47;48.05;100329.94;6328085;20;2739055;-47
2023/10/02 15:14:50;;;;;;;;;5.40;3.80;;;;;22.53;48.26;100315.63;6325292;20;2747241;-52
2023/10/02 15:17:20;;;;;;;;;2.60;2.60;;;;;22.26;48.86;100322.03;6294759;20;2755330;-50
2023/10/02 15:19:49;;;;;;;;;4.67;4.67;;;;;22.25;50.18;100317.59;6276231;20;2745150;-49
2023/10/02 15:22:18;;;;;;;;;4.60;3.60;;;;;22.35;48.84;100320.22;6326749;20;2747226;-53
2023/10/02 15:24:48;;;;;;;;;6.00;4.20;;;;;22.25;49.47;100316.69;6294644;20;2743065;-54
2023/10/02 15:27:18;;;;;;;;;6.20;4.60;;;;;22.32;49.66;100318.66;6293031;20;2751493;-51
2023/10/02 15:29:46;;;;;;;;;5.67;5.67;;;;;22.05;51.86;100316.78;6271180;20;2733693;-51
2023/10/02 15:32:20;;;;;;;;;6.40;4.40;;;;;22.12;51.34;100319.78;6327678;20;2748257;-49
2023/10/02 15:34:50;;;;;;;;;8.20;5.20;;;;;21.78;53.39;100317.66;6297070;20;2748228;-49
2023/10/02 15:37:21;;;;;;;;;5.80;3.60;;;;;21.62;53.88;100318.31;6293085;20;2739927;-47
2023/10/02 15:39:50;;;;;;;;;3.80;3.60;;;;;21.50;54.49;100319.50;6297178;20;2756639;-49
2023/10/02 15:42:22;;;;;;;;;5.57;4.43;;;;;21.38;54.86;100316.13;6317999;20;3457599;-53
2023/10/02 15:44:50;;;;;;;;;4.67;4.67;;;;;20.90;56.81;100314.28;6303600;20;2748325;-47
2023/10/02 15:47:20;;;;;;;;;4.00;3.00;;;;;20.73;58.51;100310.44;6323344;20;2750303;-51
2023/10/02 15:49:49;;;;;;;;;4.00;3.00;;;;;20.75;57.54;100305.72;6293588;20;2740089;-53
2023/10/02 15:52:18;;;;;;;;;10.67;5.67;;;;;20.69;59.06;100311.72;6299082;20;2764908;-50
2023/10/02 15:54:48;;;;;;;;;4.20;4.00;;;;;20.47;60.48;100312.00;6325500;20;2748363;-48
2023/10/02 15:57:18;;;;;;;;;10.00;9.60;;;;;20.55;60.27;100312.19;6290485;20;2793121;-53
2023/10/02 15:59:46;;;;;;;;;21.00;17.00;;;;;20.31;62.37;100316.16;6271099;20;2839960;-49
2023/10/02 16:02:15;;;;;;;;;32.00;26.33;;;;;20.21;64.31;100318.00;6298645;20;1905564;-49
2023/10/02 16:04:44;;;;;;;;;25.00;19.00;;;;;19.86;64.82;100315.78;6302399;20;3580497;-47
2023/10/02 16:07:14;;;;;;;;;15.00;14.00;;;;;19.82;66.31;100317.88;6267289;20;2799256;-49
2023/10/02 16:09:42;;;;;;;;;8.00;6.00;;;;;19.68;67.65;100318.28;6277805;20;2729572;-50
2023/10/02 16:12:11;;;;;;;;;8.00;8.00;;;;;19.58;68.24;100315.47;6304204;20;2735945;-49
2023/10/02 16:14:39;;;;;;;;;10.00;8.00;;;;;19.35;70.89;100316.66;6298306;20;2763858;-50
2023/10/02 16:17:09;;;;;;;;;7.00;4.80;;;;;19.08;72.28;100315.34;6321479;20;2735854;-50
2023/10/02 16:19:38;;;;;;;;;7.00;7.00;;;;;18.99;71.97;100317.03;6304346;20;2733666;-54
2023/10/02 16:22:08;;;;;;;;;12.67;7.00;;;;;19.21;70.95;100317.88;6304588;20;2756542;-52
2023/10/02 16:24:37;;;;;;;;;7.33;7.33;;;;;19.14;71.62;100316.69;6299478;20;2748293;-49
2023/10/02 16:27:07;;;;;;;;;8.80;6.00;;;;;19.04;71.54;100331.09;6321512;20;2748200;-48
2023/10/02 16:29:35;;;;;;;;;6.00;5.00;;;;;18.64;74.65;100318.19;6269364;20;2748218;-45
2023/10/02 16:32:04;;;;;;;;;10.00;7.00;;;;;18.56;74.37;100325.25;6312968;20;1913003;-47
2023/10/02 16:34:34;;;;;;;;;9.60;5.60;;;;;18.55;74.58;100316.22;6295557;20;2758620;-45
2023/10/02 16:37:03;;;;;;;;;9.33;7.00;;;;;18.36;76.00;100325.09;6266150;20;2750270;-45
2023/10/02 16:39:33;;;;;;;;;9.80;7.00;;;;;18.23;77.38;100316.22;6329285;20;2759764;-53
2023/10/02 16:42:03;;;;;;;;;7.60;6.40;;;;;18.09;77.20;100317.38;6301776;20;2744326;-47
2023/10/02 16:44:34;;;;;;;;;9.00;6.00;;;;;17.98;77.99;100320.09;6276283;20;2737684;-48
2023/10/02 16:47:04;;;;;;;;;8.00;5.00;;;;;18.22;77.14;100328.09;6332850;20;2737905;-50
2023/10/02 16:49:34;;;;;;;;;5.00;4.00;;;;;18.05;77.60;100313.19;6309411;20;2740916;-46
2023/10/02 16:52:04;;;;;;;;;6.20;6.20;;;;;17.83;78.46;100321.38;6326558;20;2730519;-49
2023/10/02 16:54:33;;;;;;;;;9.40;7.20;;;;;17.70;80.32;100316.91;6328531;20;2755920;-49
2023/10/02 16:57:03;;;;;;;;;9.67;9.67;;;;;17.66;80.92;100320.84;6272099;20;2773184;-47
2023/10/02 16:59:34;;;;;;;;;9.67;9.00;;;;;17.44;81.48;100316.31;6305055;20;2746179;-49
2023/10/02 17:02:02;;;;;;;;;8.00;8.00;;;;;17.33;82.03;100319.88;6305962;20;2750382;-48
2023/10/02 17:04:31;;;;;;;;;13.00;10.00;;;;;17.17;81.91;100319.38;6309594;20;2789983;-50
2023/10/02 17:07:00;;;;;;;;;12.67;10.00;;;;;16.69;84.28;100319.44;6272816;20;3508627;-48
2023/10/02 17:09:29;;;;;;;;;11.00;10.00;;;;;16.58;85.84;100322.13;6298274;20;3522169;-48
2023/10/02 17:11:59;;;;;;;;;12.33;9.00;;;;;16.65;86.51;100318.84;6303047;20;2769022;-46
2023/10/02 17:14:30;;;;;;;;;9.40;9.40;;;;;16.32;87.13;100319.53;6331044;20;2789902;-48
2023/10/02 17:16:58;;;;;;;;;15.00;11.00;;;;;16.23;88.88;100322.97;6269605;20;2788954;-47
2023/10/02 17:19:27;;;;;;;;;12.67;10.67;;;;;16.23;88.92;100322.97;6302186;20;2786734;-46
2023/10/02 17:21:55;;;;;;;;;12.50;10.00;;;;;16.21;89.21;100319.50;6307023;20;2789863;-45
2023/10/02 17:24:24;;;;;;;;;14.67;9.67;;;;;16.34;89.04;100328.44;6267756;20;2792067;-51
2023/10/02 17:26:53;;;;;;;;;11.33;9.67;;;;;16.14;89.98;100326.34;6295952;20;2781547;-48
2023/10/02 17:29:21;;;;;;;;;12.00;7.00;;;;;16.23;89.82;100328.38;6305437;20;2719150;-49
2023/10/02 17:31:50;;;;;;;;;13.33;8.67;;;;;16.26;89.96;100332.69;6269261;20;3486784;-50
2023/10/02 17:34:18;;;;;;;;;12.50;11.00;;;;;16.22;89.61;100334.78;6308889;20;2790967;-51
2023/10/02 17:36:46;;;;;;;;;11.00;11.00;;;;;16.18;90.57;100330.56;6276770;20;2789985;-48
2023/10/02 17:39:16;;;;;;;;;12.00;10.33;;;;;16.44;89.25;100334.03;6273375;20;3513837;-47
2023/10/02 17:41:45;;;;;;;;;17.00;14.00;;;;;16.12;90.09;100333.75;6305607;20;2494045;-49
2023/10/02 17:44:14;;;;;;;;;14.33;12.00;;;;;16.14;90.49;100335.34;6271816;20;3516944;-49
2023/10/02 17:46:48;;;;;;;;;13.33;11.33;;;;;15.91;90.91;100328.94;6270638;20;3514893;-46
2023/10/02 17:49:17;;;;;;;;;15.67;12.00;;;;;15.82;92.51;100340.41;6302061;20;2793090;-47
2023/10/02 17:51:45;;;;;;;;;12.00;10.00;;;;;15.93;91.94;100340.50;6306222;20;2783710;-45
2023/10/02 17:54:14;;;;;;;;;13.00;11.33;;;;;15.58;92.92;100343.88;6270708;20;3514894;-50
2023/10/02 17:56:44;;;;;;;;;10.00;9.00;;;;;15.77;92.80;100334.47;6327498;20;2766971;-48
2023/10/02 17:59:14;;;;;;;;;17.00;14.00;;;;;15.87;91.77;100338.25;6274872;20;2808604;-48
2023/10/02 18:01:44;;;;;;;;;18.33;14.00;;;;;15.98;91.47;100341.03;6300984;20;3537787;-49
2023/10/02 18:04:13;;;;;;;;;17.50;16.00;;;;;15.67;92.72;100342.38;6269292;20;2816093;-49
2023/10/02 18:06:46;;;;;;;;;21.00;15.00;;;;;15.65;93.01;100343.47;6269595;20;2487806;-50
2023/10/02 18:09:17;;;;;;;;;21.00;15.50;;;;;15.54;94.21;100336.97;6273529;20;2820135;-49
2023/10/02 18:11:45;;;;;;;;;18.00;12.00;;;;;15.51;94.46;100342.63;6272545;20;2491958;-46
2023/10/02 18:14:13;;;;;;;;;24.00;15.00;;;;;15.80;92.85;100345.97;6272917;20;2475300;-50
2023/10/02 18:16:45;;;;;;;;;20.50;15.50;;;;;15.64;93.00;100344.41;6270001;20;2835774;-49
2023/10/02 18:19:15;;;;;;;;;20.00;15.50;;;;;15.24;95.02;100341.84;6274712;20;2825299;-47
2023/10/02 18:21:47;;;;;;;;;15.00;14.00;;;;;15.15;96.01;100336.13;6272462;20;3531632;-48
2023/10/02 18:24:17;;;;;;;;;8.50;7.00;;;;;15.30;95.96;100338.75;6276584;20;2734649;-49
2023/10/02 18:26:46;;;;;;;;;12.67;12.33;;;;;15.08;96.60;100340.22;6271274;20;3523207;-48
2023/10/02 18:29:15;;;;;;;;;17.00;13.00;;;;;15.62;93.93;100343.69;6303484;20;3529449;-51
2023/10/02 18:31:45;;;;;;;;;21.67;17.67;;;;;15.46;94.49;100343.94;6270323;20;2481621;-48
2023/10/02 18:34:14;;;;;;;;;13.67;11.00;;;;;15.09;96.22;100347.38;6303357;20;2786892;-48
2023/10/02 18:36:59;;;;;;;;;21.00;14.50;;;;;14.79;97.73;100344.09;6302424;20;2811738;-50
2023/10/02 18:39:29;;;;;;;;;23.50;19.00;;;;;14.89;97.50;100339.78;6269476;20;2846218;-52
2023/10/02 18:41:57;;;;;;;;;19.00;18.50;;;;;15.04;96.91;100344.13;6268871;20;2489887;-50
2023/10/02 18:44:28;;;;;;;;;14.00;10.67;;;;;14.86;97.71;100345.41;6272408;20;2790256;-50
2023/10/02 18:46:59;;;;;;;;;17.00;17.00;;;;;14.56;98.33;100338.44;6296568;20;2831531;-47
2023/10/02 18:49:28;;;;;;;;;28.00;21.33;;;;;14.41;99.86;100353.78;6272882;20;3607595;-49
2023/10/02 18:51:58;;;;;;;;;22.00;17.50;;;;;14.23;100.00;100353.19;6305159;20;2724280;-49
2023/10/02 18:54:27;;;;;;;;;24.00;18.50;;;;;14.13;100.00;100356.59;6299393;20;2844115;-47
2023/10/02 18:56:59;;;;;;;;;24.67;24.67;;;;;14.08;100.00;100359.59;6270254;20;2845184;-47
2023/10/02 18:59:28;;;;;;;;;23.00;19.00;;;;;14.32;99.79;100351.69;6305330;20;3581529;-50
2023/10/02 19:01:57;;;;;;;;;17.33;17.33;;;;;14.16;99.98;100359.94;6265291;20;2500440;-49
2023/10/02 19:04:25;;;;;;;;;17.67;16.00;;;;;14.08;100.00;100353.31;6306727;20;3556601;-49
2023/10/02 19:06:55;;;;;;;;;15.00;15.00;;;;;13.74;100.00;100361.75;6286342;20;2808643;-48
2023/10/02 19:09:28;;;;;;;;;17.00;15.00;;;;;14.05;100.00;100355.25;6270932;20;2813951;-49
2023/10/02 19:11:58;;;;;;;;;16.00;16.00;;;;;14.24;100.00;100357.63;6269630;20;3548162;-48
2023/10/02 19:14:31;;;;;;;;;14.50;14.50;;;;;14.41;98.33;100361.91;6258870;20;2808658;-51
2023/10/02 19:16:59;;;;;;;;;16.33;14.67;;;;;14.60;97.10;100356.16;6268562;20;3554416;-49
2023/10/02 19:19:29;;;;;;;;;17.00;15.00;;;;;14.24;98.85;100360.34;6272891;20;3545069;-51
2023/10/02 19:21:58;;;;;;;;;13.00;13.00;;;;;14.00;100.00;100361.91;6268098;20;3520148;-50
2023/10/02 19:24:26;;;;;;;;;14.50;14.50;;;;;13.71;100.00;100366.50;6271085;20;2491944;-48
2023/10/02 19:26:55;;;;;;;;;19.00;16.33;;;;;14.32;99.49;100357.09;6268153;20;2830522;-49
2023/10/02 19:29:24;;;;;;;;;13.67;13.67;;;;;14.32;97.90;100357.09;6303854;20;3531627;-47
2023/10/02 19:31:53;;;;;;;;;19.00;19.00;;;;;14.56;97.61;100354.66;6269600;20;2835757;-46
2023/10/02 19:34:22;;;;;;;;;21.50;18.00;;;;;13.95;100.00;100351.41;6271854;20;2834677;-46
2023/10/02 19:36:50;;;;;;;;;23.00;20.00;;;;;13.85;100.00;100350.31;6269785;20;2841973;-51
2023/10/02 19:39:20;;;;;;;;;16.00;14.00;;;;;13.56;100.00;100354.84;6268818;20;2813843;-49
2023/10/02 19:41:49;;;;;;;;;13.00;10.33;;;;;13.75;100.00;100354.56;6270614;20;2786877;-47
2023/10/02 19:44:17;;;;;;;;;12.00;12.00;;;;;14.36;98.06;100364.03;6304319;20;2795073;-48
2023/10/02 19:46:47;;;;;;;;;20.00;17.50;;;;;13.90;99.62;100363.47;6269237;20;2838934;-52
2023/10/02 19:49:16;;;;;;;;;15.50;14.50;;;;;13.55;100.00;100353.97;6271399;20;2492069;-48
2023/10/02 19:51:44;;;;;;;;;20.00;14.50;;;;;13.79;100.00;100356.06;6269253;20;2500393;-45
2023/10/02 19:54:12;;;;;;;;;15.00;13.50;;;;;14.07;100.00;100360.56;6264434;20;2500447;-47
2023/10/02 19:56:41;;;;;;;;;14.00;13.00;;;;;13.92;99.85;100358.84;6266442;20;2805546;-49
2023/10/02 19:59:09;;;;;;;;;17.50;16.00;;;;;13.64;100.00;100360.63;6294281;20;2491980;-50
2023/10/02 20:01:37;;;;;;;;;16.00;14.50;;;;;13.72;100.00;100365.56;6268426;20;2491964;-48
2023/10/02 20:04:06;;;;;;;;;20.00;17.00;;;;;14.18;99.14;100360.72;6268787;20;2832643;-47
2023/10/02 20:06:36;;;;;;;;;15.00;13.00;;;;;13.60;99.23;100361.78;6268533;20;3520074;-49
2023/10/02 20:09:05;;;;;;;;;16.00;14.50;;;;;13.12;100.00;100358.47;6298962;20;2492012;-47
2023/10/02 20:11:34;;;;;;;;;14.67;12.00;;;;;13.31;100.00;100352.81;6270252;20;3538842;-45
2023/10/02 20:14:05;;;;;;;;;12.67;12.67;;;;;13.42;100.00;100361.09;6268924;20;3520551;-51
2023/10/02 20:16:44;;;;;;;;;17.00;14.00;;;;;13.52;100.00;100361.41;6306648;20;2803619;-51
2023/10/02 20:19:17;;;;;;;;;12.33;11.00;;;;;13.56;100.00;100360.22;6272731;20;3518108;-47
2023/10/02 20:21:45;;;;;;;;;15.00;12.00;;;;;13.27;100.00;100364.75;6306035;20;3513793;-47
2023/10/02 20:24:17;;;;;;;;;10.33;9.33;;;;;12.88;100.00;100359.00;6304908;20;3496129;-50
2023/10/02 20:26:46;;;;;;;;;12.50;12.00;;;;;12.90;100.00;100356.19;6306733;20;2795075;-50
2023/10/02 20:29:14;;;;;;;;;13.50;12.00;;;;;12.63;100.00;100356.03;6275469;20;2794130;-48
2023/10/02 20:31:43;;;;;;;;;14.00;13.00;;;;;12.84;100.00;100359.25;6276173;20;3524277;-47
2023/10/02 20:34:13;;;;;;;;;11.33;11.33;;;;;12.74;100.00;100356.25;6305651;20;2792045;-47
2023/10/02 20:37:01;;;;;;;;;10.00;10.00;;;;;12.75;100.00;100358.00;6311998;20;2799378;-48
2023/10/02 20:39:29;;;;;;;;;13.50;11.00;;;;;13.34;100.00;100358.03;6278852;20;2794209;-49
2023/10/02 20:41:57;;;;;;;;;12.67;10.67;;;;;12.93;100.00;100354.19;6275208;20;2795122;-49
2023/10/02 20:44:29;;;;;;;;;10.80;10.80;;;;;12.58;100.00;100352.72;6331651;20;2787149;-46
2023/10/02 20:46:58;;;;;;;;;10.00;9.67;;;;;12.32;100.00;100360.50;6269950;20;2787893;-47
2023/10/02 20:49:43;;;;;;;;;11.50;11.50;;;;;12.35;100.00;100363.03;6310410;20;2793051;-46
2023/10/02 20:52:12;;;;;;;;;12.33;10.33;;;;;12.43;100.00;100358.06;6274234;20;2790968;-49
2023/10/02 20:54:40;;;;;;;;;10.67;10.67;;;;;12.73;100.00;100360.75;6304225;20;3517964;-49
2023/10/02 20:57:09;;;;;;;;;11.00;10.00;;;;;12.88;100.00;100361.69;6306259;20;2794134;-48
2023/10/02 20:59:38;;;;;;;;;10.33;10.00;;;;;12.65;100.00;100365.75;6273167;20;2786857;-47
2023/10/02 21:02:07;;;;;;;;;13.00;12.50;;;;;12.54;100.00;100362.84;6309644;20;2803799;-46
2023/10/02 21:04:35;;;;;;;;;13.00;13.00;;;;;12.40;100.00;100355.56;6274996;20;2799314;-46
2023/10/02 21:07:03;;;;;;;;;13.00;11.00;;;;;12.46;100.00;100365.97;6279756;20;2792007;-48
2023/10/02 21:09:33;;;;;;;;;11.00;9.67;;;;;12.08;100.00;100360.09;6276812;20;2777470;-48
2023/10/02 21:12:03;;;;;;;;;11.67;10.33;;;;;12.14;100.00;100364.25;6311694;20;2788861;-50
2023/10/02 21:14:31;;;;;;;;;11.00;11.00;;;;;12.22;100.00;100370.09;6315258;20;2791114;-47
2023/10/02 21:16:59;;;;;;;;;10.00;9.00;;;;;12.41;100.00;100369.91;6275773;20;2763830;-50
2023/10/02 21:19:27;;;;;;;;;13.33;10.33;;;;;12.69;100.00;100366.41;6281719;20;2790936;-46
2023/10/02 21:21:57;;;;;;;;;9.80;9.20;;;;;12.94;100.00;100366.69;6337782;20;2778490;-47
2023/10/02 21:24:25;;;;;;;;;11.00;10.00;;;;;13.12;99.36;100366.53;6283440;20;2788956;-47
2023/10/02 21:26:54;;;;;;;;;12.33;10.00;;;;;12.99;98.95;100368.25;6280020;20;2786880;-46
2023/10/02 21:29:21;;;;;;;;;9.00;9.00;;;;;12.30;100.00;100357.06;6313997;20;2756489;-50
2023/10/02 21:31:49;;;;;;;;;9.00;9.00;;;;;12.14;100.00;100365.16;6283493;20;2743135;-45
2023/10/02 21:34:17;;;;;;;;;10.00;9.00;;;;;12.13;100.00;100365.22;6286224;20;2767038;-46
2023/10/02 21:36:47;;;;;;;;;11.00;11.00;;;;;12.46;100.00;100365.97;6306343;20;2786707;-47
2023/10/02 21:39:18;;;;;;;;;11.00;10.60;;;;;12.20;100.00;100364.78;6308104;20;2796139;-48
2023/10/02 21:41:47;;;;;;;;;9.80;9.60;;;;;11.98;100.00;100365.16;6307923;20;2791990;-47
2023/10/02 21:44:17;;;;;;;;;10.00;10.00;;;;;11.77;100.00;100363.59;6310524;20;2793029;-48
2023/10/02 21:46:47;;;;;;;;;12.00;11.00;;;;;11.85;100.00;100364.06;6281932;20;2789973;-47
2023/10/02 21:49:14;;;;;;;;;10.00;9.50;;;;;11.86;100.00;100365.84;6284151;20;2770141;-46
2023/10/02 21:51:44;;;;;;;;;10.00;10.00;;;;;11.92;100.00;100360.09;6287107;20;2792265;-49
2023/10/02 21:54:13;;;;;;;;;10.67;10.67;;;;;11.77;100.00;100366.28;6278508;20;2791930;-46
2023/10/02 21:56:41;;;;;;;;;10.50;9.50;;;;;11.73;100.00;100372.81;6311540;20;2776317;-47
2023/10/02 21:59:09;;;;;;;;;12.00;12.00;;;;;11.56;100.00;100363.00;6280095;20;2789863;-47
2023/10/02 22:01:37;;;;;;;;;13.50;10.50;;;;;11.76;100.00;100367.25;6282075;20;2790946;-47
2023/10/02 22:04:06;;;;;;;;;10.33;9.67;;;;;12.07;100.00;100364.63;6282400;20;2777345;-45
2023/10/02 22:06:36;;;;;;;;;13.00;10.00;;;;;12.20;100.00;100363.91;6311839;20;2789031;-50
2023/10/02 22:09:04;;;;;;;;;10.50;9.00;;;;;11.69;100.00;100364.06;6319138;20;2777408;-47
2023/10/02 22:11:36;;;;;;;;;12.50;8.00;;;;;11.44;100.00;100364.53;6282650;20;2754405;-46
2023/10/02 22:14:12;;;;;;;;;11.00;9.00;;;;;11.73;100.00;100368.31;6279972;20;3495095;-47
2023/10/02 22:16:42;;;;;;;;;13.60;11.60;;;;;11.79;100.00;100365.25;6334945;20;2796153;-46
2023/10/02 22:19:11;;;;;;;;;9.00;8.00;;;;;11.88;100.00;100366.63;6285717;20;2731595;-47
2023/10/02 22:21:48;;;;;;;;;10.00;10.00;;;;;12.23;100.00;100361.91;6284377;20;2791944;-46
2023/10/02 22:24:20;;;;;;;;;11.33;11.33;;;;;11.62;100.00;100360.81;6283975;20;2794079;-51
2023/10/02 22:26:48;;;;;;;;;10.00;8.00;;;;;11.43;100.00;100365.47;6311611;20;2755553;-49
2023/10/02 22:29:17;;;;;;;;;12.50;10.50;;;;;11.26;100.00;100368.19;6283704;20;2786809;-47
2023/10/02 22:31:46;;;;;;;;;10.50;10.00;;;;;11.42;100.00;100372.66;6286449;20;2796143;-47
2023/10/02 22:34:14;;;;;;;;;11.00;10.00;;;;;11.35;100.00;100365.91;6281903;20;2788971;-47
2023/10/02 22:37:02;;;;;;;;;12.50;9.50;;;;;11.45;100.00;100365.38;6313458;20;2774434;-46
2023/10/02 22:39:33;;;;;;;;;9.00;9.00;;;;;11.29;100.00;100359.97;6308213;20;2747602;-47
2023/10/02 22:42:02;;;;;;;;;14.00;12.33;;;;;11.93;100.00;100366.34;6280224;20;2793110;-49
2023/10/02 22:44:31;;;;;;;;;9.33;8.67;;;;;11.69;100.00;100363.16;6312177;20;2754423;-46
2023/10/02 22:46:59;;;;;;;;;12.00;9.00;;;;;11.55;100.00;100363.94;6314498;20;2774243;-48
2023/10/02 22:49:28;;;;;;;;;12.00;9.67;;;;;11.26;100.00;100366.38;6279889;20;2782554;-46
2023/10/02 22:51:59;;;;;;;;;11.00;11.00;;;;;11.19;100.00;100363.16;6337044;20;2804641;-46
2023/10/02 22:54:28;;;;;;;;;10.50;10.50;;;;;11.07;100.00;100361.13;6278473;20;2783754;-47
2023/10/02 22:57:02;;;;;;;;;11.00;10.33;;;;;11.15;100.00;100360.72;6278760;20;2780602;-49
2023/10/02 22:59:31;;;;;;;;;10.33;10.33;;;;;11.03;100.00;100364.91;6309156;20;2792132;-48
2023/10/02 23:02:03;;;;;;;;;12.00;11.00;;;;;11.18;100.00;100364.09;6311504;20;3517959;-45
2023/10/02 23:04:31;;;;;;;;;10.50;10.00;;;;;10.87;100.00;100361.28;6311447;20;2787121;-47